Time;durP1;ratioP1;P1;durP2;ratioP2;P2;SDS_P1;SDS_P2;PMS_P1;PMS_P2;Temp;Humidity;BMP_temperature;BMP_pressure;BME280_temperature;BME280_humidity;BME280_pressure;Samples;Min_cycle;Max_cycle;Signal;HPM_P1;HPM_P2
2024/01/19 00:00:30;;;;;;;11.85;8.88;;;;;;;7.12;90.33;93668.88;5109478;28;20032;-67
2024/01/19 00:02:56;;;;;;;10.18;8.48;;;;;;;6.85;91.21;93656.63;5095979;28;20035;-67
2024/01/19 00:05:21;;;;;;;11.65;8.90;;;;;;;7.05;92.34;93667.78;5088923;28;20550;-67
2024/01/19 00:07:47;;;;;;;9.65;6.72;;;;;;;7.11;93.88;93675.00;5117243;28;20027;-67
2024/01/19 00:10:12;;;;;;;7.28;5.43;;;;;;;7.28;94.46;93672.72;5090870;28;20028;-67
2024/01/19 00:12:38;;;;;;;10.55;7.25;;;;;;;7.18;94.17;93682.22;5121899;27;20039;-67
2024/01/19 00:15:07;;;;;;;9.55;6.13;;;;;;;7.25;94.46;93673.00;5105786;28;20397;-68
2024/01/19 00:17:32;;;;;;;8.00;5.38;;;;;;;7.27;93.97;93673.66;5116645;28;20415;-67
2024/01/19 00:19:58;;;;;;;7.55;4.80;;;;;;;7.39;93.61;93670.81;5110669;27;20028;-67
2024/01/19 00:22:23;;;;;;;6.20;4.63;;;;;;;7.34;93.49;93682.50;5112352;28;20043;-67
2024/01/19 00:24:48;;;;;;;5.80;4.88;;;;;;;7.45;91.47;93666.88;5106940;28;20490;-67
2024/01/19 00:27:14;;;;;;;6.90;4.72;;;;;;;7.31;91.70;93675.03;5094143;28;20031;-67
2024/01/19 00:29:41;;;;;;;6.07;4.10;;;;;;;7.17;92.56;93660.72;5118871;27;20069;-67
2024/01/19 00:32:06;;;;;;;6.32;4.07;;;;;;;7.41;89.72;93688.78;5113894;27;20042;-67
2024/01/19 00:34:32;;;;;;;6.32;3.60;;;;;;;7.43;89.27;93694.59;5119429;27;20036;-67
2024/01/19 00:36:57;;;;;;;4.70;3.63;;;;;;;7.45;89.35;93700.47;5109916;28;20048;-67
2024/01/19 00:39:22;;;;;;;7.00;4.30;;;;;;;7.31;89.24;93693.09;5121087;27;20035;-67
2024/01/19 00:41:48;;;;;;;3.83;2.92;;;;;;;7.33;89.98;93701.56;5113212;28;20400;-67
2024/01/19 00:44:13;;;;;;;4.32;2.55;;;;;;;7.45;89.32;93692.72;5112572;27;20031;-67
2024/01/19 00:46:39;;;;;;;4.53;2.80;;;;;;;7.49;88.82;93696.63;5111247;27;20047;-67
2024/01/19 00:49:05;;;;;;;4.03;2.90;;;;;;;7.44;87.54;93703.16;5112478;27;20028;-67
2024/01/19 00:51:30;;;;;;;4.35;2.67;;;;;;;7.10;91.02;93690.63;5113303;28;20024;-67
2024/01/19 00:53:56;;;;;;;3.83;2.63;;;;;;;7.07;91.46;93668.47;5085762;28;20072;-67
2024/01/19 00:56:21;;;;;;;4.38;2.13;;;;;;;7.14;92.83;93676.50;5098233;27;20023;-67
2024/01/19 00:58:47;;;;;;;6.35;2.05;;;;;;;7.28;92.46;93658.03;5093568;28;20062;-66
2024/01/19 01:01:13;;;;;;;5.15;2.63;;;;;;;7.12;92.55;93668.88;5107309;28;20136;-66
2024/01/19 01:03:39;;;;;;;8.18;5.28;;;;;;;7.16;92.75;93696.09;5112724;28;20091;-68
2024/01/19 01:06:04;;;;;;;7.85;5.35;;;;;;;7.27;92.07;93678.81;5106788;27;20028;-67
2024/01/19 01:08:30;;;;;;;7.20;5.30;;;;;;;7.19;91.47;93689.00;5124196;27;20412;-67
2024/01/19 01:10:55;;;;;;;9.75;6.18;;;;;;;7.16;91.67;93684.94;5091148;28;20028;-67
2024/01/19 01:13:21;;;;;;;9.60;5.28;;;;;;;7.02;91.72;93686.16;5104820;28;20032;-67
2024/01/19 01:15:47;;;;;;;8.15;5.30;;;;;;;7.06;91.58;93709.94;5108958;27;20042;-67
2024/01/19 01:18:12;;;;;;;6.07;4.40;;;;;;;7.26;91.39;93698.66;5089615;28;20019;-67
2024/01/19 01:20:38;;;;;;;7.20;4.78;;;;;;;7.24;90.51;93689.41;5093728;28;20036;-67
2024/01/19 01:23:03;;;;;;;7.43;4.70;;;;;;;7.11;90.73;93679.34;5086451;27;20076;-67
2024/01/19 01:25:30;;;;;;;7.47;6.00;;;;;;;7.12;90.91;93678.41;5117862;27;20039;-67
2024/01/19 01:27:56;;;;;;;7.97;7.00;;;;;;;6.84;91.55;93654.16;5105617;27;20035;-67
2024/01/19 01:30:21;;;;;;;9.35;6.43;;;;;;;7.01;91.28;93679.31;5111949;28;20491;-67
2024/01/19 01:32:47;;;;;;;13.40;11.70;;;;;;;7.04;91.16;93686.81;5111579;27;20024;-67
2024/01/19 01:35:13;;;;;;;16.50;12.75;;;;;;;7.07;91.45;93685.72;5107349;28;20412;-67
2024/01/19 01:37:38;;;;;;;13.50;8.77;;;;;;;7.14;90.70;93705.72;5101815;27;20535;-67
2024/01/19 01:40:05;;;;;;;11.75;7.85;;;;;;;7.21;90.19;93674.19;5109196;27;20024;-67
2024/01/19 01:42:30;;;;;;;9.95;6.75;;;;;;;7.01;90.63;93686.25;5124086;27;20031;-68
2024/01/19 01:44:55;;;;;;;10.15;6.45;;;;;;;6.83;90.84;93686.09;5098138;27;20130;-67
2024/01/19 01:47:21;;;;;;;11.38;6.20;;;;;;;6.98;90.42;93687.34;5115596;27;20034;-67
2024/01/19 01:49:46;;;;;;;8.38;6.20;;;;;;;6.82;90.80;93681.88;5131433;27;20019;-67
2024/01/19 01:52:12;;;;;;;7.78;6.22;;;;;;;6.95;90.15;93682.44;5112016;28;20543;-67
2024/01/19 01:54:37;;;;;;;9.77;6.25;;;;;;;6.96;90.15;93689.22;5095232;28;20024;-67
2024/01/19 01:57:03;;;;;;;9.25;6.40;;;;;;;7.06;89.43;93684.09;5113756;28;20028;-67
2024/01/19 01:59:29;;;;;;;8.93;6.22;;;;;;;6.99;90.13;93681.22;5115940;27;20031;-67
2024/01/19 02:01:54;;;;;;;8.80;6.20;;;;;;;6.81;90.81;93680.25;5115679;27;20515;-67
2024/01/19 02:04:19;;;;;;;8.77;5.43;;;;;;;7.03;90.22;93677.44;5115435;27;20039;-67
2024/01/19 02:06:45;;;;;;;9.43;6.03;;;;;;;6.99;90.37;93699.28;5115477;27;20038;-67
2024/01/19 02:09:10;;;;;;;10.98;7.45;;;;;;;6.89;89.86;93703.63;5129924;27;20027;-67
2024/01/19 02:11:36;;;;;;;9.15;7.03;;;;;;;6.76;90.38;93677.22;5132464;27;20028;-67
2024/01/19 02:14:05;;;;;;;10.52;7.53;;;;;;;6.69;90.78;93687.28;5098171;27;20695;-67
2024/01/19 02:16:31;;;;;;;12.20;7.03;;;;;;;6.60;91.27;93690.63;5115831;27;20058;-67
2024/01/19 02:18:56;;;;;;;10.70;7.32;;;;;;;6.64;91.61;93685.06;5129861;27;20023;-67
2024/01/19 02:21:21;;;;;;;10.13;7.30;;;;;;;6.66;91.15;93703.03;5131924;27;20466;-67
2024/01/19 02:23:54;;;;;;;8.25;6.20;;;;;;;6.72;91.75;93705.88;5132169;27;20035;-67
2024/01/19 02:26:19;;;;;;;11.60;8.13;;;;;;;6.69;90.82;93702.75;5129395;27;20039;-67
2024/01/19 02:28:45;;;;;;;11.10;7.10;;;;;;;6.63;91.55;93713.56;5114880;27;20054;-68
2024/01/19 02:31:10;;;;;;;12.40;7.90;;;;;;;6.57;92.06;93714.91;5131964;27;20042;-67
2024/01/19 02:33:36;;;;;;;7.72;6.10;;;;;;;6.78;91.04;93727.78;5133125;27;20031;-67
2024/01/19 02:36:01;;;;;;;7.97;5.95;;;;;;;6.54;91.75;93707.44;5129230;27;20058;-67
2024/01/19 02:38:26;;;;;;;8.30;5.10;;;;;;;6.40;92.40;93728.41;5133082;27;20039;-67
2024/01/19 02:40:52;;;;;;;8.07;6.03;;;;;;;6.46;92.40;93727.91;5133131;27;20384;-67
2024/01/19 02:43:17;;;;;;;8.93;5.68;;;;;;;6.39;92.99;93708.75;5132977;27;20023;-67
2024/01/19 02:45:43;;;;;;;28.88;22.58;;;;;;;6.47;93.31;93732.13;5129169;27;20031;-67
2024/01/19 02:48:09;;;;;;;15.93;11.18;;;;;;;6.51;92.96;93727.53;5131678;27;20039;-67
2024/01/19 02:50:34;;;;;;;4.32;2.67;;;;;;;6.54;93.09;93728.06;5129948;27;20078;-67
2024/01/19 02:53:00;;;;;;;3.63;2.40;;;;;;;6.69;93.07;93719.06;5110891;28;20043;-67
2024/01/19 02:55:25;;;;;;;3.42;1.70;;;;;;;6.61;91.91;93705.16;5128177;27;20023;-67
2024/01/19 02:57:51;;;;;;;2.80;1.40;;;;;;;6.62;92.28;93723.09;5131484;27;20080;-67
2024/01/19 03:00:16;;;;;;;6.53;4.50;;;;;;;6.66;92.46;93723.66;5122037;27;20106;-67
2024/01/19 03:02:41;;;;;;;16.92;11.25;;;;;;;6.77;90.16;93744.22;5114023;27;20027;-67
2024/01/19 03:05:07;;;;;;;14.80;10.50;;;;;;;6.67;91.11;93754.50;5131155;27;20039;-67
2024/01/19 03:07:32;;;;;;;7.63;6.25;;;;;;;6.58;90.91;93746.72;5132723;27;20034;-67
2024/01/19 03:09:58;;;;;;;9.80;6.82;;;;;;;6.43;91.45;93744.44;5131283;27;20031;-67
2024/01/19 03:12:23;;;;;;;9.85;6.03;;;;;;;6.54;91.28;93733.25;5126219;27;20092;-67
2024/01/19 03:14:48;;;;;;;8.52;5.22;;;;;;;6.54;90.99;93735.81;5131042;27;20412;-67
2024/01/19 03:17:14;;;;;;;7.78;4.88;;;;;;;6.64;91.25;93747.00;5132309;27;20035;-67
2024/01/19 03:19:39;;;;;;;9.10;4.70;;;;;;;6.63;90.51;93744.53;5132634;27;20023;-67
2024/01/19 03:22:05;;;;;;;5.80;4.30;;;;;;;6.61;90.59;93739.53;5128772;27;20030;-67
2024/01/19 03:24:30;;;;;;;5.78;4.35;;;;;;;6.46;90.99;93743.38;5131042;27;20023;-67
2024/01/19 03:26:55;;;;;;;6.18;5.18;;;;;;;6.48;90.61;93734.56;5131011;27;20035;-67
2024/01/19 03:29:22;;;;;;;8.30;4.82;;;;;;;6.12;91.25;93711.84;5132130;27;20035;-67
2024/01/19 03:31:48;;;;;;;8.27;4.95;;;;;;;6.19;91.95;93743.94;5129094;27;20113;-67
2024/01/19 03:34:13;;;;;;;7.00;4.50;;;;;;;6.40;90.15;93754.22;5130844;27;20023;-67
2024/01/19 03:36:39;;;;;;;4.90;3.80;;;;;;;6.16;89.25;93739.03;5132029;27;20382;-66
2024/01/19 03:39:04;;;;;;;6.05;3.40;;;;;;;6.03;90.24;93740.03;5129399;27;20027;-66
2024/01/19 03:41:30;;;;;;;5.00;3.55;;;;;;;6.07;91.24;93744.94;5132262;27;20087;-66
2024/01/19 03:43:55;;;;;;;4.65;3.28;;;;;;;6.02;89.76;93742.75;5130686;27;20031;-67
2024/01/19 03:46:21;;;;;;;6.60;3.88;;;;;;;5.92;90.35;93731.50;5096534;27;20042;-66
2024/01/19 03:48:46;;;;;;;4.72;3.33;;;;;;;5.87;91.14;93746.53;5129494;27;20031;-67
2024/01/19 03:51:11;;;;;;;5.57;3.50;;;;;;;6.01;89.45;93754.78;5111482;28;20027;-66
2024/01/19 03:53:37;;;;;;;5.50;3.22;;;;;;;5.52;89.30;93699.47;5129891;28;20080;-66
2024/01/19 03:56:02;;;;;;;4.10;3.08;;;;;;;5.69;89.78;93775.41;5130838;27;20508;-66
2024/01/19 03:58:28;;;;;;;5.78;3.90;;;;;;;5.68;89.49;93781.50;5130129;27;20034;-66
2024/01/19 04:00:53;;;;;;;7.32;3.65;;;;;;;5.54;89.85;93774.06;5129890;27;20050;-66
2024/01/19 04:03:19;;;;;;;4.53;3.00;;;;;;;5.66;89.90;93774.84;5132873;27;20527;-66
2024/01/19 04:05:45;;;;;;;5.28;3.15;;;;;;;5.64;88.27;93771.59;5118988;27;20032;-66
2024/01/19 04:08:11;;;;;;;4.95;3.70;;;;;;;5.46;88.77;93758.38;5115083;27;20088;-67
2024/01/19 04:10:36;;;;;;;7.25;4.50;;;;;;;5.44;89.29;93770.59;5115118;28;20024;-67
2024/01/19 04:13:02;;;;;;;9.30;4.32;;;;;;;5.38;90.55;93784.78;5114114;28;20035;-67
2024/01/19 04:15:27;;;;;;;5.32;3.42;;;;;;;5.70;89.25;93776.25;5079979;28;20039;-66
2024/01/19 04:17:52;;;;;;;4.32;2.67;;;;;;;5.46;90.92;93773.84;5115352;28;20055;-66
2024/01/19 04:20:18;;;;;;;3.97;2.80;;;;;;;5.58;91.48;93775.47;5113804;28;20027;-66
2024/01/19 04:22:43;;;;;;;4.95;3.40;;;;;;;5.52;91.44;93763.06;5115456;28;20081;-66
2024/01/19 04:25:09;;;;;;;4.78;3.20;;;;;;;5.51;91.63;93772.53;5114949;28;20031;-66
2024/01/19 04:27:34;;;;;;;7.32;4.65;;;;;;;5.55;91.49;93762.81;5115152;28;20483;-66
2024/01/19 04:29:59;;;;;;;7.53;5.07;;;;;;;5.42;91.63;93786.16;5114994;28;20036;-67
2024/01/19 04:32:25;;;;;;;6.63;4.13;;;;;;;5.42;92.66;93768.13;5114926;28;20485;-66
2024/01/19 04:34:50;;;;;;;6.97;4.13;;;;;;;5.28;94.23;93729.78;5114862;28;20027;-67
2024/01/19 04:37:16;;;;;;;7.43;4.65;;;;;;;5.67;94.70;93761.84;5111804;28;20056;-66
2024/01/19 04:39:41;;;;;;;5.07;3.75;;;;;;;5.77;94.90;93767.09;5114512;28;20027;-67
2024/01/19 04:42:07;;;;;;;5.05;3.92;;;;;;;5.84;94.96;93770.78;5114707;28;20024;-67
2024/01/19 04:44:33;;;;;;;7.38;4.28;;;;;;;5.79;94.69;93758.28;5079646;28;20042;-67
2024/01/19 04:46:58;;;;;;;12.77;6.60;;;;;;;6.07;93.84;93757.81;5115020;28;20081;-67
2024/01/19 04:49:23;;;;;;;6.78;4.88;;;;;;;6.03;92.89;93752.09;5114664;28;20040;-67
2024/01/19 04:51:49;;;;;;;17.85;10.10;;;;;;;6.04;93.24;93769.19;5079236;28;20020;-67
2024/01/19 04:54:14;;;;;;;8.35;5.20;;;;;;;6.09;91.80;93768.84;5113613;28;20528;-66
2024/01/19 04:56:40;;;;;;;9.68;6.25;;;;;;;6.03;91.69;93772.72;5113324;28;20031;-66
2024/01/19 04:59:05;;;;;;;8.85;6.57;;;;;;;6.01;91.77;93764.28;5112127;28;20039;-66
2024/01/19 05:01:31;;;;;;;8.85;5.43;;;;;;;5.80;92.76;93765.06;5112810;28;20084;-67
2024/01/19 05:03:56;;;;;;;8.63;6.95;;;;;;;6.03;92.31;93770.16;5113152;28;20019;-66
2024/01/19 05:06:21;;;;;;;10.77;5.85;;;;;;;6.08;91.42;93780.91;5112899;28;20032;-67
2024/01/19 05:08:47;;;;;;;6.78;5.43;;;;;;;6.01;91.52;93792.66;5113159;28;20688;-66
2024/01/19 05:11:13;;;;;;;14.55;11.77;;;;;;;5.95;90.87;93791.38;5114346;28;20028;-66
2024/01/19 05:13:40;;;;;;;14.30;9.60;;;;;;;5.76;91.84;93771.41;5114168;28;20172;-67
2024/01/19 05:16:06;;;;;;;8.82;6.30;;;;;;;5.86;93.13;93773.25;5113003;28;20036;-66
2024/01/19 05:18:31;;;;;;;6.80;4.68;;;;;;;5.93;92.73;93774.38;5112928;28;20115;-66
2024/01/19 05:20:57;;;;;;;6.53;4.13;;;;;;;5.85;93.31;93789.63;5112693;28;20039;-67
2024/01/19 05:23:22;;;;;;;16.85;11.23;;;;;;;5.95;93.00;93785.41;5113971;28;20024;-66
2024/01/19 05:25:47;;;;;;;17.83;9.27;;;;;;;5.85;93.88;93790.47;5112678;28;20031;-66
2024/01/19 05:28:13;;;;;;;15.20;9.30;;;;;;;5.86;94.58;93796.44;5113894;28;20039;-67
2024/01/19 05:30:39;;;;;;;14.05;7.22;;;;;;;6.12;93.51;93796.94;5112650;28;20035;-67
2024/01/19 05:33:04;;;;;;;10.30;6.78;;;;;;;6.18;92.68;93804.97;5112570;28;20028;-66
2024/01/19 05:35:29;;;;;;;11.75;8.50;;;;;;;6.05;92.93;93796.63;5112311;28;20039;-67
2024/01/19 05:37:55;;;;;;;21.98;15.82;;;;;;;6.01;93.56;93798.63;5113789;28;20027;-67
2024/01/19 05:40:20;;;;;;;13.27;8.25;;;;;;;5.92;93.78;93803.69;5112127;28;20035;-67
2024/01/19 05:42:46;;;;;;;28.52;16.90;;;;;;;6.11;93.63;93803.88;5095400;28;20039;-67
2024/01/19 05:45:11;;;;;;;30.15;17.83;;;;;;;6.20;92.75;93810.03;5113158;28;20023;-67
2024/01/19 05:47:36;;;;;;;19.48;13.38;;;;;;;6.20;92.05;93810.03;5112049;28;20028;-73
2024/01/19 05:50:02;;;;;;;25.42;15.25;;;;;;;5.94;92.60;93820.69;5112098;28;20386;-67
2024/01/19 05:52:27;;;;;;;24.15;13.30;;;;;;;6.07;93.01;93817.13;5113414;27;20027;-67
2024/01/19 05:54:53;;;;;;;19.08;12.27;;;;;;;6.11;91.80;93806.44;5113294;28;20409;-68
2024/01/19 05:57:18;;;;;;;19.42;11.77;;;;;;;6.06;91.84;93810.34;5113194;28;20035;-68
2024/01/19 05:59:44;;;;;;;16.95;11.55;;;;;;;5.89;92.21;93803.94;5113075;28;20026;-68
2024/01/19 06:02:09;;;;;;;18.95;11.18;;;;;;;6.01;92.31;93805.53;5108038;28;20028;-68
2024/01/19 06:04:38;;;;;;;17.23;10.38;;;;;;;6.17;91.44;93805.94;5105252;28;20032;-67
2024/01/19 06:07:04;;;;;;;18.88;11.48;;;;;;;6.07;91.19;93801.66;5105525;28;20039;-67
2024/01/19 06:09:29;;;;;;;22.25;11.82;;;;;;;6.26;91.19;93805.19;5109612;28;20458;-67
2024/01/19 06:11:55;;;;;;;29.92;17.42;;;;;;;6.13;90.77;93806.31;5109494;27;20398;-68
2024/01/19 06:14:20;;;;;;;28.95;14.68;;;;;;;6.28;90.53;93802.50;5101728;28;20043;-68
2024/01/19 06:16:46;;;;;;;18.02;10.23;;;;;;;6.32;90.25;93790.16;5104939;27;20393;-68
2024/01/19 06:19:11;;;;;;;18.90;12.20;;;;;;;6.21;90.41;93798.75;5088009;28;20035;-68
2024/01/19 06:21:36;;;;;;;32.50;19.95;;;;;;;6.13;90.44;93808.88;5105152;28;20039;-68
2024/01/19 06:24:02;;;;;;;24.35;13.18;;;;;;;6.27;89.75;93821.50;5109973;28;20031;-67
2024/01/19 06:26:32;;;;;;;28.52;15.63;;;;;;;5.91;90.60;93809.78;5113494;27;20054;-67
2024/01/19 06:28:58;;;;;;;24.52;15.25;;;;;;;6.05;91.17;93806.94;5109325;28;20466;-68
2024/01/19 06:31:23;;;;;;;22.40;12.95;;;;;;;6.01;91.38;93801.19;5110051;28;20159;-67
2024/01/19 06:33:49;;;;;;;21.52;12.68;;;;;;;5.80;92.36;93826.94;5091233;28;20533;-67
2024/01/19 06:36:14;;;;;;;18.33;10.90;;;;;;;6.11;91.07;93819.34;5106119;28;20055;-68
2024/01/19 06:38:39;;;;;;;17.30;11.23;;;;;;;5.89;91.76;93827.13;5110369;28;20032;-67
2024/01/19 06:41:05;;;;;;;18.13;11.32;;;;;;;6.02;92.37;93838.94;5092244;28;20027;-67
2024/01/19 06:43:31;;;;;;;14.95;11.23;;;;;;;6.16;91.60;93830.09;5104380;28;20489;-67
2024/01/19 06:45:56;;;;;;;17.60;10.98;;;;;;;6.01;90.90;93839.88;5108393;28;20485;-68
2024/01/19 06:48:21;;;;;;;20.45;12.85;;;;;;;5.85;91.66;93846.34;5115146;27;20459;-67
2024/01/19 06:50:47;;;;;;;14.13;9.90;;;;;;;6.11;90.93;93867.53;5108027;28;20032;-67
2024/01/19 06:53:12;;;;;;;11.38;9.05;;;;;;;6.24;90.50;93863.84;5104811;27;20509;-67
2024/01/19 06:55:38;;;;;;;12.63;7.88;;;;;;;6.13;90.57;93850.13;5096552;28;20111;-67
2024/01/19 06:58:03;;;;;;;9.50;7.43;;;;;;;5.85;91.88;93867.81;5110475;27;20023;-67
2024/01/19 07:00:28;;;;;;;9.68;7.25;;;;;;;6.13;92.12;93871.63;5092915;28;20023;-68
2024/01/19 07:02:54;;;;;;;12.63;8.20;;;;;;;6.11;91.41;93858.00;5108293;28;20032;-67
2024/01/19 07:05:20;;;;;;;13.73;7.85;;;;;;;6.18;91.68;93882.34;5108866;28;20032;-68
2024/01/19 07:07:45;;;;;;;11.18;8.02;;;;;;;6.26;92.02;93874.00;5103467;28;20035;-69
2024/01/19 07:10:10;;;;;;;11.70;8.40;;;;;;;6.45;91.01;93855.28;5110024;28;20031;-67
2024/01/19 07:12:36;;;;;;;10.85;7.43;;;;;;;6.41;91.88;93856.50;5106675;28;20028;-67
2024/01/19 07:15:01;;;;;;;10.27;6.55;;;;;;;6.44;91.95;93856.22;5107879;28;20127;-67
2024/01/19 07:17:27;;;;;;;10.13;7.25;;;;;;;6.36;92.24;93856.03;5119295;27;20700;-67
2024/01/19 07:19:52;;;;;;;10.95;6.35;;;;;;;6.77;92.19;93877.59;5108063;28;20038;-67
2024/01/19 07:22:17;;;;;;;11.75;9.23;;;;;;;6.97;90.46;93879.38;5109637;28;20086;-68
2024/01/19 07:24:43;;;;;;;12.10;8.73;;;;;;;6.89;90.55;93879.19;5091424;28;20425;-68
2024/01/19 07:27:09;;;;;;;11.38;7.28;;;;;;;7.15;89.43;93884.75;5108790;28;20042;-68
2024/01/19 07:29:34;;;;;;;14.77;8.57;;;;;;;7.08;89.58;93875.91;5075858;28;20421;-67
2024/01/19 07:32:00;;;;;;;12.75;7.40;;;;;;;7.10;89.86;93871.41;5103100;28;20019;-68
2024/01/19 07:34:25;;;;;;;10.48;7.32;;;;;;;7.18;90.25;93870.75;5110523;28;20032;-68
2024/01/19 07:36:51;;;;;;;10.18;6.68;;;;;;;7.52;89.24;93877.31;5089572;28;20043;-67
2024/01/19 07:39:23;;;;;;;9.93;7.57;;;;;;;7.65;88.02;93856.38;5108937;28;20036;-69
2024/01/19 07:41:49;;;;;;;13.90;9.25;;;;;;;7.79;87.29;93857.75;5077567;27;20024;-68
2024/01/19 07:44:14;;;;;;;9.63;7.50;;;;;;;8.02;87.69;93869.53;5109275;28;20485;-68
2024/01/19 07:46:40;;;;;;;10.65;7.93;;;;;;;8.42;86.30;93866.00;5113368;27;20496;-68
2024/01/19 07:49:05;;;;;;;11.65;8.50;;;;;;;8.53;85.67;93867.66;5088461;28;20043;-67
2024/01/19 07:51:30;;;;;;;10.75;7.60;;;;;;;8.52;85.23;93871.16;5109936;28;20488;-68
2024/01/19 07:53:56;;;;;;;8.90;6.88;;;;;;;8.57;85.86;93866.41;5110380;28;20058;-68
2024/01/19 07:56:21;;;;;;;22.75;11.57;;;;;;;8.54;86.38;93863.28;5109420;28;20462;-68
2024/01/19 07:58:47;;;;;;;49.90;27.20;;;;;;;8.52;87.01;93875.53;5106903;28;20031;-68
2024/01/19 08:01:12;;;;;;;29.70;17.25;;;;;;;8.65;86.03;93876.88;5100874;28;20028;-67
2024/01/19 08:03:38;;;;;;;41.97;23.25;;;;;;;8.56;85.61;93871.75;5099320;28;20055;-69
2024/01/19 08:06:04;;;;;;;45.72;30.20;;;;;;;8.64;84.91;93874.44;5081814;28;20088;-68
2024/01/19 08:08:29;;;;;;;44.30;29.40;;;;;;;8.56;84.76;93871.75;5111021;28;20077;-67
2024/01/19 08:10:55;;;;;;;42.42;27.83;;;;;;;8.72;84.72;93892.72;5105819;28;20023;-68
2024/01/19 08:13:20;;;;;;;42.53;26.45;;;;;;;8.63;84.46;93891.72;5109889;28;20459;-68
2024/01/19 08:15:46;;;;;;;21.55;15.43;;;;;;;8.52;85.72;93888.47;5092604;28;20046;-68
2024/01/19 08:18:11;;;;;;;23.23;15.32;;;;;;;8.36;87.06;93887.25;5110910;28;20028;-68
2024/01/19 08:20:37;;;;;;;17.38;12.85;;;;;;;8.29;87.43;93904.25;5109614;28;20549;-69
2024/01/19 08:23:02;;;;;;;16.63;13.05;;;;;;;8.25;88.12;93905.50;5109645;28;20031;-68
2024/01/19 08:25:28;;;;;;;24.48;15.20;;;;;;;8.36;86.25;93891.56;5110851;28;20173;-69
2024/01/19 08:27:53;;;;;;;18.23;12.13;;;;;;;8.32;86.87;93890.22;5090595;28;20031;-68
2024/01/19 08:30:20;;;;;;;21.08;14.10;;;;;;;8.43;87.58;93903.06;5087376;28;20051;-69
2024/01/19 08:32:45;;;;;;;21.15;14.30;;;;;;;8.74;87.78;93908.91;5108836;28;20027;-68
2024/01/19 08:35:11;;;;;;;23.88;15.98;;;;;;;9.07;86.67;93909.41;5110802;28;20028;-69
2024/01/19 08:37:39;;;;;;;18.98;13.15;;;;;;;9.20;85.48;93907.34;5108503;28;20041;-68
2024/01/19 08:40:06;;;;;;;20.83;13.80;;;;;;;9.37;83.00;93905.78;5109493;28;20035;-69
2024/01/19 08:42:31;;;;;;;17.17;12.95;;;;;;;9.45;83.61;93905.06;5109134;28;20043;-67
2024/01/19 08:44:56;;;;;;;20.33;13.57;;;;;;;9.63;84.05;93908.53;5075221;28;20125;-68
2024/01/19 08:47:22;;;;;;;18.65;13.07;;;;;;;9.82;82.68;93892.88;5106652;28;20031;-69
2024/01/19 08:49:47;;;;;;;24.83;15.63;;;;;;;9.77;83.13;93909.84;5111062;28;20036;-69
2024/01/19 08:52:13;;;;;;;19.77;14.25;;;;;;;9.87;82.96;93895.06;5113061;28;20027;-69
2024/01/19 08:54:38;;;;;;;19.35;14.60;;;;;;;10.18;81.34;93908.53;5096130;28;20077;-69
2024/01/19 08:57:04;;;;;;;20.33;11.77;;;;;;;10.57;80.19;93921.25;5113389;28;20067;-68
2024/01/19 08:59:29;;;;;;;10.45;6.38;;;;;;;9.76;78.72;93861.53;5112096;28;20036;-69
2024/01/19 09:01:55;;;;;;;7.72;3.83;;;;;;;10.25;77.45;93906.13;5092534;28;20027;-70
2024/01/19 09:04:20;;;;;;;6.72;3.55;;;;;;;10.14;76.68;93902.00;5101737;28;20035;-67
2024/01/19 09:06:46;;;;;;;6.68;4.00;;;;;;;10.68;78.36;93920.22;5113987;28;20477;-68
2024/01/19 09:09:11;;;;;;;4.75;2.30;;;;;;;10.41;73.94;93903.75;5113474;28;20035;-68
2024/01/19 09:11:37;;;;;;;9.15;3.05;;;;;;;10.34;74.95;93907.09;5112991;28;20043;-69
2024/01/19 09:14:02;;;;;;;16.58;8.15;;;;;;;10.21;74.49;93903.03;5097964;28;20081;-69
2024/01/19 09:16:27;;;;;;;15.52;6.78;;;;;;;10.55;72.30;93909.38;5111435;28;20049;-68
2024/01/19 09:18:53;;;;;;;32.78;12.73;;;;;;;10.50;74.32;93912.41;5095292;28;20421;-69
2024/01/19 09:21:18;;;;;;;8.98;4.95;;;;;;;10.46;74.68;93898.91;5114104;28;20469;-69
2024/01/19 09:23:44;;;;;;;10.75;5.00;;;;;;;10.71;73.75;93893.94;5112692;28;20027;-72
2024/01/19 09:26:19;;;;;;;8.73;3.90;;;;;;;10.66;73.63;93891.78;5095608;28;20496;-70
2024/01/19 09:28:45;;;;;;;6.15;3.00;;;;;;;10.66;73.64;93886.59;5107808;28;20024;-70
2024/01/19 09:31:10;;;;;;;10.43;4.80;;;;;;;10.41;73.97;93876.97;5100227;28;20055;-68
2024/01/19 09:33:36;;;;;;;5.60;3.45;;;;;;;10.45;73.56;93880.91;5105770;28;20032;-68
2024/01/19 09:36:01;;;;;;;9.80;5.30;;;;;;;10.59;73.56;93880.38;5108759;28;20094;-69
2024/01/19 09:38:27;;;;;;;10.63;4.85;;;;;;;10.86;73.11;93882.03;5092045;28;20085;-70
2024/01/19 09:40:58;;;;;;;5.88;3.25;;;;;;;10.83;72.21;93884.13;5093271;28;20044;-69
2024/01/19 09:43:23;;;;;;;6.75;3.22;;;;;;;11.03;72.50;93880.41;5092042;28;20067;-69
2024/01/19 09:45:49;;;;;;;11.68;5.18;;;;;;;11.31;72.26;93878.44;5108826;28;20036;-70
2024/01/19 09:48:21;;;;;;;8.32;3.15;;;;;;;11.46;70.05;93876.09;5074918;28;20083;-69
2024/01/19 09:50:47;;;;;;;7.60;2.90;;;;;;;11.60;69.53;93866.88;5091785;28;20032;-69
2024/01/19 09:53:22;;;;;;;4.53;2.35;;;;;;;11.24;70.79;93858.41;5091601;28;20063;-70
2024/01/19 09:55:47;;;;;;;6.75;3.13;;;;;;;11.07;71.38;93879.09;5091821;28;20032;-69
2024/01/19 09:58:12;;;;;;;5.60;3.35;;;;;;;11.11;71.83;93880.41;5093161;28;20418;-71
2024/01/19 10:00:38;;;;;;;6.72;3.05;;;;;;;11.43;69.81;93879.00;5092876;28;20028;-69
2024/01/19 10:03:04;;;;;;;6.10;2.50;;;;;;;11.29;69.54;93853.56;5113164;28;20500;-69
2024/01/19 10:05:29;;;;;;;4.88;2.92;;;;;;;10.69;72.43;93857.72;5092852;28;20086;-69
2024/01/19 10:07:55;;;;;;;7.57;3.05;;;;;;;10.67;72.33;93869.22;5074657;28;20397;-69
2024/01/19 10:10:20;;;;;;;6.32;2.63;;;;;;;10.55;72.67;93873.03;5074440;28;20463;-69
2024/01/19 10:12:46;;;;;;;11.23;5.53;;;;;;;10.46;72.70;93830.59;5091333;28;20101;-74
2024/01/19 10:15:12;;;;;;;9.00;4.55;;;;;;;10.73;72.06;93840.88;5057726;28;20123;-68
2024/01/19 10:17:39;;;;;;;5.45;3.20;;;;;;;10.92;72.06;93844.22;5091315;28;20414;-69
2024/01/19 10:20:06;;;;;;;9.38;3.38;;;;;;;10.78;73.06;93852.59;5074389;28;20020;-69
2024/01/19 10:22:32;;;;;;;7.70;4.50;;;;;;;10.57;73.30;93830.38;5107059;28;20035;-69
2024/01/19 10:24:58;;;;;;;6.25;3.60;;;;;;;10.67;73.37;93825.91;5094572;28;20076;-68
2024/01/19 10:27:51;;;;;;;7.28;3.42;;;;;;;11.13;71.78;93833.50;5094262;28;20035;-69
2024/01/19 10:30:26;;;;;;;7.82;3.40;;;;;;;11.18;72.45;93833.84;5111515;28;20044;-68
2024/01/19 10:32:52;;;;;;;8.43;4.60;;;;;;;11.61;72.22;93827.69;5111228;28;20101;-69
2024/01/19 10:35:19;;;;;;;8.45;5.25;;;;;;;11.85;70.92;93820.94;5094103;28;20142;-69
2024/01/19 10:37:44;;;;;;;7.22;4.70;;;;;;;11.86;69.16;93817.41;5077468;28;20032;-68
2024/01/19 10:40:23;;;;;;;8.48;4.35;;;;;;;11.73;70.03;93817.84;5112229;28;20035;-69
2024/01/19 10:42:54;;;;;;;9.13;3.72;;;;;;;11.85;69.87;93813.16;5111108;28;20028;-68
2024/01/19 10:45:24;;;;;;;6.78;3.35;;;;;;;11.47;70.09;93802.28;5106757;28;20035;-68
2024/01/19 10:47:53;;;;;;;6.38;3.63;;;;;;;11.60;70.44;93810.47;5108703;28;20126;-68
2024/01/19 10:50:19;;;;;;;10.45;4.40;;;;;;;11.86;69.54;93799.19;5109802;28;20087;-68
2024/01/19 10:52:49;;;;;;;8.27;4.65;;;;;;;12.15;69.13;93795.34;5093860;28;20050;-69
2024/01/19 10:55:21;;;;;;;9.18;4.85;;;;;;;11.87;69.71;93786.97;5075455;28;20115;-68
2024/01/19 10:57:49;;;;;;;8.23;4.63;;;;;;;12.02;70.59;93781.00;5103744;28;20023;-68
2024/01/19 11:00:22;;;;;;;5.53;3.40;;;;;;;11.95;71.93;93779.19;5093867;28;20516;-68
2024/01/19 11:02:48;;;;;;;6.97;3.42;;;;;;;12.13;70.91;93798.09;5092658;28;20032;-69
2024/01/19 11:05:16;;;;;;;8.10;3.20;;;;;;;12.28;69.60;93793.06;5099307;28;20024;-69
2024/01/19 11:07:41;;;;;;;7.20;3.65;;;;;;;12.24;69.45;93791.75;5101807;28;20421;-68
2024/01/19 11:10:07;;;;;;;5.05;2.65;;;;;;;12.32;68.81;93780.53;5081522;28;20036;-69
2024/01/19 11:12:33;;;;;;;5.85;2.90;;;;;;;12.47;67.43;93776.28;5094479;28;20497;-69
2024/01/19 11:14:59;;;;;;;5.07;3.03;;;;;;;12.68;66.22;93765.38;5090588;28;20097;-68
2024/01/19 11:17:24;;;;;;;8.98;3.67;;;;;;;12.78;66.79;93758.19;5088890;28;20032;-68
2024/01/19 11:19:50;;;;;;;5.03;2.88;;;;;;;12.99;63.80;93775.09;5094289;28;20867;-69
2024/01/19 11:22:15;;;;;;;5.32;2.45;;;;;;;13.05;62.83;93777.03;5101862;28;20065;-68
2024/01/19 11:24:41;;;;;;;5.47;2.92;;;;;;;13.27;65.55;93780.75;5107607;27;20585;-68
2024/01/19 11:27:14;;;;;;;6.03;2.58;;;;;;;12.85;61.67;93769.59;5102675;28;20111;-69